Time;durP1;ratioP1;P1;durP2;ratioP2;P2;SDS_P1;SDS_P2;PMS_P1;PMS_P2;Temp;Humidity;BMP_temperature;BMP_pressure;BME280_temperature;BME280_humidity;BME280_pressure;Samples;Min_cycle;Max_cycle;Signal;HPM_P1;HPM_P2
2023/08/14 00:00:36;;;;;;;5.30;3.80;;;;;;;;;;6312965;28;20719;-79
2023/08/14 00:03:37;;;;;;;6.03;4.20;;;;;;;;;;6313429;28;20107;-79
2023/08/14 00:06:39;;;;;;;6.32;4.00;;;;;;;;;;6315089;28;20063;-78
2023/08/14 00:09:40;;;;;;;5.05;3.90;;;;;;;;;;6314931;28;20064;-81
2023/08/14 00:12:42;;;;;;;5.70;4.00;;;;;;;;;;6315595;28;20196;-82
2023/08/14 00:15:45;;;;;;;4.43;4.03;;;;;;;;;;6315160;28;20056;-83
2023/08/14 00:18:46;;;;;;;5.93;3.83;;;;;;;;;;6313805;28;20056;-85
2023/08/14 00:21:48;;;;;;;5.22;4.40;;;;;;;;;;6316558;28;20055;-80
2023/08/14 00:24:49;;;;;;;5.55;3.80;;;;;;;;;;6315436;28;20081;-82
2023/08/14 00:27:51;;;;;;;4.75;4.20;;;;;;;;;;6314609;28;20052;-80
2023/08/14 00:30:54;;;;;;;5.20;4.28;;;;;;;;;;6315872;28;20244;-82
2023/08/14 00:33:55;;;;;;;;;;;;;;;;;;6317317;28;20075;-83
2023/08/14 00:36:56;;;;;;;5.97;4.30;;;;;;;;;;6314702;28;19928;-86
2023/08/14 00:39:58;;;;;;;4.85;4.00;;;;;;;;;;6315413;28;20068;-84
2023/08/14 00:42:59;;;;;;;4.43;4.03;;;;;;;;;;6316992;28;20067;-82
2023/08/14 00:46:02;;;;;;;5.63;4.05;;;;;;;;;;6317866;28;20052;-82
2023/08/14 00:49:04;;;;;;;6.60;4.55;;;;;;;;;;6321534;28;20376;-84
2023/08/14 00:52:06;;;;;;;6.35;4.07;;;;;;;;;;6316722;28;20056;-83
2023/08/14 00:55:09;;;;;;;6.25;4.22;;;;;;;;;;6317192;28;20056;-83
2023/08/14 00:58:10;;;;;;;4.70;3.70;;;;;;;;;;6315976;28;20048;-86
2023/08/14 01:01:14;;;;;;;5.68;3.80;;;;;;;;;;6314233;28;20102;-81
2023/08/14 01:04:15;;;;;;;4.35;3.70;;;;;;;;;;6312873;28;20051;-82
2023/08/14 01:07:17;;;;;;;5.15;4.45;;;;;;;;;;6316690;28;20052;-80
2023/08/14 01:10:18;;;;;;;6.15;4.20;;;;;;;;;;6315583;28;20088;-83
2023/08/14 01:13:24;;;;;;;6.53;4.80;;;;;;;;;;6312327;28;20337;-82
2023/08/14 01:16:29;;;;;;;4.30;3.90;;;;;;;;;;6314358;28;20056;-86
2023/08/14 01:19:33;;;;;;;4.35;3.83;;;;;;;;;;6312391;28;20044;-85
2023/08/14 01:22:40;;;;;;;5.47;3.85;;;;;;;;;;6314968;28;20059;-80
2023/08/14 01:25:43;;;;;;;3.88;3.42;;;;;;;;;;6311456;28;20107;-82
2023/08/14 01:28:45;;;;;;;;;;;;;;;;;;6314118;28;20052;-82
2023/08/14 01:31:47;;;;;;;6.65;4.05;;;;;;;;;;6313801;28;19934;-81
2023/08/14 01:34:48;;;;;;;5.38;4.10;;;;;;;;;;6313058;28;20051;-83
2023/08/14 01:37:55;;;;;;;3.97;3.50;;;;;;;;;;6318207;28;20055;-82
2023/08/14 01:41:02;;;;;;;5.10;3.85;;;;;;;;;;6313312;28;20056;-78
2023/08/14 01:44:06;;;;;;;4.85;3.97;;;;;;;;;;6313531;28;20086;-82
2023/08/14 01:47:09;;;;;;;5.55;3.72;;;;;;;;;;6314877;28;20059;-79
2023/08/14 01:50:11;;;;;;;4.60;4.05;;;;;;;;;;6314667;28;20044;-80
2023/08/14 01:53:12;;;;;;;7.25;4.53;;;;;;;;;;6311545;28;20467;-79
2023/08/14 01:56:15;;;;;;;4.35;3.83;;;;;;;;;;6319418;28;20056;-79
2023/08/14 01:59:17;;;;;;;4.30;3.90;;;;;;;;;;6318498;28;20056;-78
2023/08/14 02:02:18;;;;;;;5.97;4.38;;;;;;;;;;6318903;28;20044;-77
2023/08/14 02:05:22;;;;;;;3.90;3.50;;;;;;;;;;6320098;28;20052;-77
2023/08/14 02:08:23;;;;;;;5.53;3.92;;;;;;;;;;6318949;28;20341;-78
2023/08/14 02:11:26;;;;;;;5.05;3.85;;;;;;;;;;6320010;28;20047;-77
2023/08/14 02:14:28;;;;;;;3.92;3.47;;;;;;;;;;6316484;28;20370;-77
2023/08/14 02:17:29;;;;;;;7.93;4.38;;;;;;;;;;6315515;28;20063;-79
2023/08/14 02:20:31;;;;;;;4.30;3.90;;;;;;;;;;6301595;28;20044;-80
2023/08/14 02:23:32;;;;;;;5.90;4.15;;;;;;;;;;6318817;28;20107;-80
2023/08/14 02:26:35;;;;;;;4.30;3.90;;;;;;;;;;6317042;28;20093;-81
2023/08/14 02:29:36;;;;;;;4.88;4.07;;;;;;;;;;6320545;28;20054;-82
2023/08/14 02:32:38;;;;;;;5.07;4.28;;;;;;;;;;6316503;28;20040;-82
2023/08/14 02:35:39;;;;;;;4.43;3.97;;;;;;;;;;6317310;28;20056;-82
2023/08/14 02:38:41;;;;;;;5.38;4.22;;;;;;;;;;6313824;28;20048;-83
2023/08/14 02:41:44;;;;;;;4.95;4.10;;;;;;;;;;6314914;28;20070;-83
2023/08/14 02:44:45;;;;;;;6.45;4.20;;;;;;;;;;6316468;28;20048;-83
2023/08/14 02:47:47;;;;;;;11.45;4.53;;;;;;;;;;6315020;28;20052;-82
2023/08/14 02:50:48;;;;;;;6.38;4.10;;;;;;;;;;6319148;28;20066;-83
2023/08/14 02:53:49;;;;;;;4.97;4.10;;;;;;;;;;6316070;28;20052;-83
2023/08/14 02:56:52;;;;;;;6.13;4.30;;;;;;;;;;6316204;28;20052;-83
2023/08/14 02:59:54;;;;;;;5.05;3.95;;;;;;;;;;6317649;28;20328;-83
2023/08/14 03:02:55;;;;;;;4.45;3.80;;;;;;;;;;6314475;28;20429;-80
2023/08/14 03:05:58;;;;;;;4.18;3.65;;;;;;;;;;6314899;28;20067;-81
2023/08/14 03:09:00;;;;;;;4.72;4.32;;;;;;;;;;6317653;28;20048;-81
2023/08/14 03:12:03;;;;;;;5.00;4.30;;;;;;;;;;6314231;28;20063;-81
2023/08/14 03:15:05;;;;;;;4.72;4.20;;;;;;;;;;6316655;28;20086;-81
2023/08/14 03:18:06;;;;;;;4.70;4.07;;;;;;;;;;6315900;28;20363;-81
2023/08/14 03:21:08;;;;;;;5.07;4.50;;;;;;;;;;6317400;28;20060;-81
2023/08/14 03:24:09;;;;;;;4.63;4.18;;;;;;;;;;6317092;28;20872;-81
2023/08/14 03:27:12;;;;;;;4.53;4.13;;;;;;;;;;6315601;28;20243;-81
2023/08/14 03:30:13;;;;;;;6.00;4.43;;;;;;;;;;6315195;28;20044;-81
2023/08/14 03:33:15;;;;;;;5.97;4.75;;;;;;;;;;6319675;28;20069;-80
2023/08/14 03:36:16;;;;;;;4.22;3.83;;;;;;;;;;6313298;28;20472;-81
2023/08/14 03:39:18;;;;;;;5.38;4.47;;;;;;;;;;6316914;28;20040;-81
2023/08/14 03:42:21;;;;;;;5.90;4.65;;;;;;;;;;6315330;28;20062;-81
2023/08/14 03:45:22;;;;;;;5.80;4.60;;;;;;;;;;6314790;28;20232;-81
2023/08/14 03:48:24;;;;;;;5.30;4.75;;;;;;;;;;6318101;28;20052;-81
2023/08/14 03:51:25;;;;;;;7.07;4.55;;;;;;;;;;6314686;28;20133;-82
2023/08/14 03:54:27;;;;;;;4.47;4.07;;;;;;;;;;6318733;28;20348;-81
2023/08/14 03:57:29;;;;;;;4.95;4.43;;;;;;;;;;6315796;28;20340;-80
2023/08/14 04:00:31;;;;;;;7.13;4.47;;;;;;;;;;6317730;28;20047;-80
2023/08/14 04:03:32;;;;;;;6.63;5.05;;;;;;;;;;6313962;28;20051;-80
2023/08/14 04:06:34;;;;;;;5.00;4.50;;;;;;;;;;6312909;28;20051;-83
2023/08/14 04:09:35;;;;;;;5.75;5.07;;;;;;;;;;6316406;28;20222;-82
2023/08/14 04:12:38;;;;;;;6.13;4.88;;;;;;;;;;6314719;28;20048;-80
2023/08/14 04:15:39;;;;;;;4.97;4.35;;;;;;;;;;6314162;28;20051;-80
2023/08/14 04:18:41;;;;;;;5.90;4.93;;;;;;;;;;6314019;28;20064;-81
2023/08/14 04:21:43;;;;;;;7.32;5.32;;;;;;;;;;6316030;28;20060;-81
2023/08/14 04:24:44;;;;;;;5.22;4.72;;;;;;;;;;6312927;28;20300;-81
2023/08/14 04:27:47;;;;;;;5.72;5.00;;;;;;;;;;6313570;28;20342;-82
2023/08/14 04:30:49;;;;;;;5.65;5.10;;;;;;;;;;6316081;28;20850;-81
2023/08/14 04:33:50;;;;;;;5.95;4.45;;;;;;;;;;6313055;28;20255;-83
2023/08/14 04:36:52;;;;;;;5.28;4.78;;;;;;;;;;6311344;28;20059;-83
2023/08/14 04:39:53;;;;;;;6.00;5.40;;;;;;;;;;6314601;28;20040;-81
2023/08/14 04:42:56;;;;;;;5.53;4.95;;;;;;;;;;6314161;28;20240;-81
2023/08/14 04:45:57;;;;;;;5.10;4.60;;;;;;;;;;6314081;28;20048;-81
2023/08/14 04:48:59;;;;;;;6.55;5.07;;;;;;;;;;6314444;28;20367;-81
2023/08/14 04:52:01;;;;;;;6.00;5.18;;;;;;;;;;6314463;28;20071;-83
2023/08/14 04:55:02;;;;;;;5.38;4.88;;;;;;;;;;6316608;28;20280;-81
2023/08/14 04:58:05;;;;;;;7.50;5.10;;;;;;;;;;6315318;28;20048;-83
2023/08/14 05:01:07;;;;;;;5.57;5.00;;;;;;;;;;6312719;28;20048;-82
2023/08/14 05:04:08;;;;;;;5.85;5.30;;;;;;;;;;6313553;28;20340;-82
2023/08/14 05:07:10;;;;;;;7.47;4.93;;;;;;;;;;6312841;28;20056;-82
2023/08/14 05:10:11;;;;;;;8.05;4.88;;;;;;;;;;6312419;28;20213;-81
2023/08/14 05:13:14;;;;;;;7.13;4.93;;;;;;;;;;6316600;28;20047;-82
2023/08/14 05:16:15;;;;;;;5.13;4.65;;;;;;;;;;6315295;28;20233;-82
2023/08/14 05:19:17;;;;;;;5.55;5.05;;;;;;;;;;6312162;28;20052;-81
2023/08/14 05:22:19;;;;;;;5.95;5.35;;;;;;;;;;6310068;28;20210;-82
2023/08/14 05:25:20;;;;;;;5.35;4.75;;;;;;;;;;6312307;28;20067;-82
2023/08/14 05:28:23;;;;;;;5.70;5.10;;;;;;;;;;6315093;28;20344;-82
2023/08/14 05:31:25;;;;;;;5.93;4.82;;;;;;;;;;6317200;28;20284;-82
2023/08/14 05:34:26;;;;;;;5.82;4.55;;;;;;;;;;6320132;28;20936;-82
2023/08/14 05:37:28;;;;;;;7.55;4.80;;;;;;;;;;6321761;28;20066;-82
2023/08/14 05:40:29;;;;;;;5.65;5.10;;;;;;;;;;6322811;28;20336;-81
2023/08/14 05:43:32;;;;;;;6.30;5.40;;;;;;;;;;6319536;28;20075;-82
2023/08/14 05:46:33;;;;;;;6.03;4.85;;;;;;;;;;6318535;28;20070;-81
2023/08/14 05:49:35;;;;;;;5.20;4.70;;;;;;;;;;6319405;28;20055;-81
2023/08/14 05:52:36;;;;;;;6.43;5.07;;;;;;;;;;6316091;28;20052;-82
2023/08/14 05:55:39;;;;;;;9.32;5.07;;;;;;;;;;6321161;28;20356;-81
2023/08/14 05:58:42;;;;;;;9.07;5.22;;;;;;;;;;6316590;28;20064;-78
2023/08/14 06:01:43;;;;;;;9.15;5.05;;;;;;;;;;6315243;28;20052;-79
2023/08/14 06:04:45;;;;;;;6.25;5.40;;;;;;;;;;6315972;28;20332;-79
2023/08/14 06:07:47;;;;;;;9.65;5.40;;;;;;;;;;6315907;28;20094;-78
2023/08/14 06:10:49;;;;;;;9.38;5.47;;;;;;;;;;6317196;28;20044;-77
2023/08/14 06:13:52;;;;;;;7.70;5.70;;;;;;;;;;6317601;28;20055;-77
2023/08/14 06:16:53;;;;;;;7.35;5.45;;;;;;;;;;6318271;28;20051;-77
2023/08/14 06:19:55;;;;;;;6.90;6.00;;;;;;;;;;6315616;28;20062;-77
2023/08/14 06:22:56;;;;;;;6.47;5.38;;;;;;;;;;6318073;28;20052;-77
2023/08/14 06:25:57;;;;;;;6.65;5.53;;;;;;;;;;6315950;28;20054;-77
2023/08/14 06:29:00;;;;;;;7.88;5.63;;;;;;;;;;6319770;28;20283;-77
2023/08/14 06:32:02;;;;;;;7.80;5.70;;;;;;;;;;6317320;28;20211;-77
2023/08/14 06:35:04;;;;;;;9.80;5.45;;;;;;;;;;6319261;28;20056;-77
2023/08/14 06:38:05;;;;;;;6.55;5.53;;;;;;;;;;6313855;28;20052;-76
2023/08/14 06:41:07;;;;;;;6.72;5.38;;;;;;;;;;6314326;28;20320;-77
2023/08/14 06:44:10;;;;;;;6.63;5.95;;;;;;;;;;6320614;28;20078;-76
2023/08/14 06:47:11;;;;;;;6.50;5.43;;;;;;;;;;6320369;28;20051;-77
2023/08/14 06:50:13;;;;;;;6.70;6.10;;;;;;;;;;6316768;28;20064;-76
2023/08/14 06:53:15;;;;;;;5.82;5.22;;;;;;;;;;6318500;28;20267;-70
2023/08/14 06:56:16;;;;;;;6.78;5.68;;;;;;;;;;6316179;28;20056;-80
2023/08/14 06:59:19;;;;;;;7.20;5.50;;;;;;;;;;6317622;28;20047;-78
2023/08/14 07:02:20;;;;;;;6.25;4.95;;;;;;;;;;6313673;28;20048;-77
2023/08/14 07:05:22;;;;;;;8.15;5.30;;;;;;;;;;6314540;28;20052;-79
2023/08/14 07:08:24;;;;;;;8.50;5.53;;;;;;;;;;6315987;28;20090;-78
2023/08/14 07:11:25;;;;;;;6.82;5.72;;;;;;;;;;6314873;28;20056;-78
2023/08/14 07:14:28;;;;;;;5.60;5.10;;;;;;;;;;6317409;28;20336;-79
2023/08/14 07:17:29;;;;;;;;;;;;;;;;;;6317422;28;20051;-78
2023/08/14 07:20:30;;;;;;;11.25;5.40;;;;;;;;;;6317853;28;19923;-78
2023/08/14 07:23:32;;;;;;;5.78;4.93;;;;;;;;;;6316745;28;20245;-78
2023/08/14 07:26:34;;;;;;;6.83;4.70;;;;;;;;;;6314673;28;20079;-78
2023/08/14 07:29:37;;;;;;;5.97;4.90;;;;;;;;;;6316921;28;20052;-78
2023/08/14 07:32:38;;;;;;;5.72;5.13;;;;;;;;;;6316415;28;20090;-78
2023/08/14 07:35:39;;;;;;;8.25;5.65;;;;;;;;;;6317079;28;20230;-79
2023/08/14 07:38:41;;;;;;;7.82;5.18;;;;;;;;;;6317381;28;20048;-79
2023/08/14 07:41:42;;;;;;;5.40;4.60;;;;;;;;;;6314675;28;20052;-80
2023/08/14 07:44:45;;;;;;;7.32;4.78;;;;;;;;;;6317966;28;20056;-79
2023/08/14 07:47:46;;;;;;;;;;;;;;;;;;6317635;28;20056;-78
2023/08/14 07:50:51;;;;;;;5.32;4.70;;;;;;;;;;6315812;28;19924;-78
2023/08/14 07:53:54;;;;;;;7.20;4.82;;;;;;;;;;6315032;28;20056;-78
2023/08/14 07:56:55;;;;;;;5.85;4.63;;;;;;;;;;6318053;28;20060;-78
2023/08/14 07:59:58;;;;;;;5.72;3.90;;;;;;;;;;6314632;28;20065;-81
2023/08/14 08:02:59;;;;;;;4.38;3.97;;;;;;;;;;6314017;28;20047;-78
2023/08/14 08:06:01;;;;;;;4.40;4.00;;;;;;;;;;6314971;28;20232;-80
2023/08/14 08:09:02;;;;;;;4.85;4.18;;;;;;;;;;6315319;28;20055;-79
2023/08/14 08:12:04;;;;;;;8.52;3.90;;;;;;;;;;6314308;28;20047;-77
2023/08/14 08:15:07;;;;;;;6.00;4.50;;;;;;;;;;6316638;28;20056;-77
2023/08/14 08:18:09;;;;;;;5.35;4.20;;;;;;;;;;6315165;28;20041;-77
2023/08/14 08:21:10;;;;;;;7.22;4.30;;;;;;;;;;6313809;28;20052;-76
2023/08/14 08:24:12;;;;;;;8.65;4.05;;;;;;;;;;6314999;28;20052;-77
2023/08/14 08:27:14;;;;;;;6.05;4.65;;;;;;;;;;6313362;28;20052;-77
2023/08/14 08:30:16;;;;;;;5.82;4.05;;;;;;;;;;6315921;28;20111;-76
2023/08/14 08:33:18;;;;;;;4.20;3.80;;;;;;;;;;6315532;28;20336;-76
2023/08/14 08:36:19;;;;;;;6.75;4.45;;;;;;;;;;6314492;28;20139;-76
2023/08/14 08:39:21;;;;;;;4.32;3.70;;;;;;;;;;6313912;28;20055;-76
2023/08/14 08:42:24;;;;;;;5.68;4.25;;;;;;;;;;6315047;28;20047;-77
2023/08/14 08:45:28;;;;;;;3.72;3.35;;;;;;;;;;6319234;28;20056;-76
2023/08/14 08:48:32;;;;;;;3.40;3.10;;;;;;;;;;6312423;28;20047;-76
2023/08/14 08:51:34;;;;;;;5.47;3.33;;;;;;;;;;6312471;28;20268;-76
2023/08/14 08:54:36;;;;;;;8.00;3.72;;;;;;;;;;6320638;28;20266;-75
2023/08/14 08:57:39;;;;;;;7.00;3.47;;;;;;;;;;6313626;28;20067;-76
2023/08/14 09:00:42;;;;;;;3.58;2.90;;;;;;;;;;6312379;28;20052;-76
2023/08/14 09:03:45;;;;;;;5.75;3.35;;;;;;;;;;6313809;28;23063;-76
2023/08/14 09:06:46;;;;;;;4.70;3.60;;;;;;;;;;6316187;28;20055;-75
2023/08/14 09:09:48;;;;;;;5.50;3.65;;;;;;;;;;6314606;28;20070;-76
2023/08/14 09:12:49;;;;;;;5.27;4.00;;;;;;;;;;6315173;28;20063;-76
2023/08/14 09:15:52;;;;;;;4.85;3.60;;;;;;;;;;6314929;28;20466;-76
2023/08/14 09:18:57;;;;;;;3.95;3.33;;;;;;;;;;6314004;28;20055;-76
2023/08/14 09:21:58;;;;;;;5.20;3.10;;;;;;;;;;6317715;28;20048;-75
2023/08/14 09:25:01;;;;;;;5.45;3.33;;;;;;;;;;6314993;28;20048;-76
2023/08/14 09:28:02;;;;;;;4.32;2.88;;;;;;;;;;6311959;28;20113;-76
2023/08/14 09:31:08;;;;;;;3.30;2.83;;;;;;;;;;6314156;28;20775;-78
2023/08/14 09:34:15;;;;;;;4.07;3.25;;;;;;;;;;6314389;28;20059;-77
2023/08/14 09:37:20;;;;;;;4.68;3.25;;;;;;;;;;6316502;28;20056;-77
2023/08/14 09:40:21;;;;;;;4.30;3.25;;;;;;;;;;6311183;28;20079;-77
2023/08/14 09:43:23;;;;;;;2.90;2.67;;;;;;;;;;6312303;28;20094;-78
2023/08/14 09:46:25;;;;;;;4.40;3.40;;;;;;;;;;6311134;28;20051;-77
2023/08/14 09:49:27;;;;;;;4.13;3.40;;;;;;;;;;6311546;28;20122;-77
2023/08/14 09:52:28;;;;;;;;;;;;;;;;;;6316024;28;20381;-76
2023/08/14 09:55:30;;;;;;;4.22;3.15;;;;;;;;;;6313119;28;19930;-76
2023/08/14 09:58:31;;;;;;;5.55;3.10;;;;;;;;;;6315938;28;20052;-76
2023/08/14 10:01:34;;;;;;;3.38;3.08;;;;;;;;;;6314264;28;20324;-76
2023/08/14 10:04:36;;;;;;;3.95;3.00;;;;;;;;;;6311847;28;20332;-76
2023/08/14 10:07:38;;;;;;;3.30;3.00;;;;;;;;;;6312708;28;20048;-76
2023/08/14 10:10:40;;;;;;;4.45;3.10;;;;;;;;;;6313189;28;20758;-76
2023/08/14 10:13:43;;;;;;;3.65;3.05;;;;;;;;;;6312474;28;20058;-76
2023/08/14 10:16:48;;;;;;;3.58;3.28;;;;;;;;;;6316821;28;20052;-77
2023/08/14 10:19:51;;;;;;;4.75;3.30;;;;;;;;;;6316834;28;20077;-76
2023/08/14 10:22:53;;;;;;;3.20;2.92;;;;;;;;;;6316343;28;20044;-76
2023/08/14 10:25:55;;;;;;;4.10;3.15;;;;;;;;;;6316141;28;20036;-76
2023/08/14 10:28:57;;;;;;;3.15;2.85;;;;;;;;;;6320011;28;20052;-76
2023/08/14 10:32:00;;;;;;;6.22;2.97;;;;;;;;;;6323476;28;20058;-76
2023/08/14 10:35:02;;;;;;;3.97;3.10;;;;;;;;;;6321485;28;20391;-76
2023/08/14 10:38:03;;;;;;;3.65;3.00;;;;;;;;;;6318763;28;20060;-81
2023/08/14 10:41:06;;;;;;;3.30;2.90;;;;;;;;;;6325250;28;20052;-83
2023/08/14 10:44:08;;;;;;;4.28;2.97;;;;;;;;;;6322886;28;20052;-82
2023/08/14 10:47:12;;;;;;;3.33;2.75;;;;;;;;;;6319658;28;20243;-82
2023/08/14 10:50:14;;;;;;;3.88;2.80;;;;;;;;;;6321519;28;20044;-81
2023/08/14 10:53:16;;;;;;;3.50;2.78;;;;;;;;;;6325526;28;20051;-80
2023/08/14 10:56:18;;;;;;;2.78;2.30;;;;;;;;;;6322209;28;20051;-80
2023/08/14 10:59:20;;;;;;;3.83;2.70;;;;;;;;;;6322445;28;20333;-80
2023/08/14 11:02:24;;;;;;;3.88;2.85;;;;;;;;;;6318593;28;20050;-80
2023/08/14 11:05:35;;;;;;;3.03;2.70;;;;;;;;;;6316971;28;20048;-82
2023/08/14 11:08:37;;;;;;;3.28;2.88;;;;;;;;;;6317020;28;20048;-80
2023/08/14 11:11:44;;;;;;;3.05;2.50;;;;;;;;;;6314347;28;20052;-81
2023/08/14 11:14:46;;;;;;;2.80;2.47;;;;;;;;;;6314819;28;20318;-79
2023/08/14 11:17:49;;;;;;;3.25;2.95;;;;;;;;;;6315558;28;20066;-79
2023/08/14 11:20:51;;;;;;;4.70;3.60;;;;;;;;;;6318672;28;20055;-80
2023/08/14 11:23:52;;;;;;;3.03;2.72;;;;;;;;;;6318411;28;20060;-80
2023/08/14 11:26:54;;;;;;;5.28;3.33;;;;;;;;;;6316895;28;20057;-85
2023/08/14 11:29:55;;;;;;;;;;;;;;;;;;6319672;28;20347;-81
2023/08/14 11:32:58;;;;;;;3.20;2.90;;;;;;;;;;6319331;28;20113;-81
2023/08/14 11:35:59;;;;;;;3.97;3.10;;;;;;;;;;6319421;28;20174;-83
2023/08/14 11:39:01;;;;;;;6.63;3.40;;;;;;;;;;6322002;28;20064;-81
2023/08/14 11:42:03;;;;;;;3.40;3.05;;;;;;;;;;6321247;28;20047;-80
2023/08/14 11:45:05;;;;;;;3.20;2.90;;;;;;;;;;6318750;28;20115;-83
2023/08/14 11:48:09;;;;;;;3.40;2.80;;;;;;;;;;6323784;28;20052;-83
2023/08/14 11:51:10;;;;;;;3.67;2.97;;;;;;;;;;6320886;28;20063;-81
2023/08/14 11:54:12;;;;;;;;;;;;;;;;;;6320010;28;20114;-81
2023/08/14 11:57:14;;;;;;;3.35;3.05;;;;;;;;;;6320197;28;19924;-83
2023/08/14 12:00:16;;;;;;;5.63;2.67;;;;;;;;;;6316944;28;20043;-81
2023/08/14 12:03:19;;;;;;;2.90;2.50;;;;;;;;;;6318740;28;20079;-84
2023/08/14 12:06:21;;;;;;;3.40;3.10;;;;;;;;;;6319061;28;20056;-79
2023/08/14 12:09:26;;;;;;;4.20;2.80;;;;;;;;;;6319789;28;20072;-79
2023/08/14 12:12:28;;;;;;;3.22;2.90;;;;;;;;;;6316697;28;20378;-79
2023/08/14 12:15:30;;;;;;;2.90;2.53;;;;;;;;;;6320506;28;20264;-80
2023/08/14 12:18:34;;;;;;;3.17;2.63;;;;;;;;;;6319196;28;20052;-80
2023/08/14 12:21:35;;;;;;;3.45;2.83;;;;;;;;;;6322179;28;20055;-79
2023/08/14 12:24:38;;;;;;;3.25;2.85;;;;;;;;;;6321414;28;20321;-79
2023/08/14 12:27:40;;;;;;;4.00;3.60;;;;;;;;;;6320544;28;20054;-79
2023/08/14 12:30:41;;;;;;;3.90;3.00;;;;;;;;;;6322140;28;20107;-80
2023/08/14 12:33:44;;;;;;;3.03;2.78;;;;;;;;;;6318953;28;20064;-81
2023/08/14 12:36:46;;;;;;;4.07;2.80;;;;;;;;;;6317919;28;20063;-79
2023/08/14 12:39:50;;;;;;;5.30;3.00;;;;;;;;;;6320852;28;20073;-81
2023/08/14 12:42:52;;;;;;;3.42;3.03;;;;;;;;;;6316071;28;20335;-81
2023/08/14 12:45:53;;;;;;;3.13;2.90;;;;;;;;;;6316740;28;20044;-80
2023/08/14 12:48:56;;;;;;;3.88;3.13;;;;;;;;;;6316169;28;20048;-79
2023/08/14 12:51:59;;;;;;;6.10;3.10;;;;;;;;;;6313721;28;20101;-80
2023/08/14 12:55:00;;;;;;;3.92;3.10;;;;;;;;;;6315934;28;20079;-80
2023/08/14 12:58:02;;;;;;;;;;;;;;;;;;6314880;28;20055;-80
2023/08/14 13:01:03;;;;;;;3.58;3.00;;;;;;;;;;6317750;28;19931;-80
2023/08/14 13:04:06;;;;;;;4.50;3.20;;;;;;;;;;6311223;28;20217;-80
2023/08/14 13:07:09;;;;;;;3.83;3.10;;;;;;;;;;6315015;28;20051;-80
2023/08/14 13:10:10;;;;;;;4.07;2.80;;;;;;;;;;6316119;28;20051;-80
2023/08/14 13:13:12;;;;;;;3.25;2.60;;;;;;;;;;6313574;28;20097;-80
2023/08/14 13:16:13;;;;;;;3.25;2.67;;;;;;;;;;6310589;28;20056;-79
2023/08/14 13:19:16;;;;;;;4.60;2.78;;;;;;;;;;6313475;28;20044;-80
2023/08/14 13:22:18;;;;;;;3.85;3.08;;;;;;;;;;6313034;28;20055;-79
2023/08/14 13:25:19;;;;;;;4.05;2.78;;;;;;;;;;6312743;28;20324;-81
2023/08/14 13:28:21;;;;;;;4.50;2.70;;;;;;;;;;6310051;28;20363;-79
2023/08/14 13:31:22;;;;;;;7.30;3.10;;;;;;;;;;6313887;28;20044;-78
2023/08/14 13:34:25;;;;;;;3.00;2.72;;;;;;;;;;6316152;28;20060;-82
2023/08/14 13:37:26;;;;;;;2.97;2.55;;;;;;;;;;6318778;28;20048;-81
2023/08/14 13:40:28;;;;;;;3.28;2.83;;;;;;;;;;6311220;28;20040;-80
2023/08/14 13:43:29;;;;;;;3.17;2.88;;;;;;;;;;6306974;28;20056;-80
2023/08/14 13:46:31;;;;;;;4.07;3.13;;;;;;;;;;6308121;28;20049;-80
2023/08/14 13:49:34;;;;;;;3.20;2.90;;;;;;;;;;6307850;28;20058;-80
2023/08/14 13:52:35;;;;;;;3.60;3.05;;;;;;;;;;6319454;28;20060;-81
2023/08/14 13:55:37;;;;;;;3.65;2.90;;;;;;;;;;6317464;28;20048;-81
2023/08/14 13:58:38;;;;;;;2.90;2.70;;;;;;;;;;6320343;28;20060;-82
2023/08/14 14:01:39;;;;;;;3.60;2.78;;;;;;;;;;6320181;28;20056;-82
2023/08/14 14:04:42;;;;;;;3.92;3.10;;;;;;;;;;6322715;28;20109;-84
2023/08/14 14:07:44;;;;;;;4.13;2.88;;;;;;;;;;6320676;28;20043;-84
2023/08/14 14:10:45;;;;;;;3.60;2.92;;;;;;;;;;6323490;28;20120;-84
2023/08/14 14:13:47;;;;;;;4.00;3.00;;;;;;;;;;6323277;28;20055;-83
2023/08/14 14:16:52;;;;;;;4.63;2.92;;;;;;;;;;6318103;28;20052;-83
2023/08/14 14:19:55;;;;;;;4.28;3.05;;;;;;;;;;6322260;28;20044;-84
2023/08/14 14:22:56;;;;;;;4.57;2.80;;;;;;;;;;6321525;28;20185;-83
2023/08/14 14:25:58;;;;;;;3.08;2.67;;;;;;;;;;6321129;28;20048;-81
2023/08/14 14:28:59;;;;;;;3.47;3.00;;;;;;;;;;6320357;28;20056;-78
2023/08/14 14:32:01;;;;;;;4.20;2.75;;;;;;;;;;6317204;28;20382;-79
2023/08/14 14:35:04;;;;;;;9.80;3.10;;;;;;;;;;6300263;28;20058;-81
2023/08/14 14:38:05;;;;;;;3.40;3.00;;;;;;;;;;6320750;28;20053;-80
2023/08/14 14:41:07;;;;;;;3.08;2.55;;;;;;;;;;6322395;28;20294;-79
2023/08/14 14:44:08;;;;;;;3.47;2.85;;;;;;;;;;6322286;28;20052;-80
2023/08/14 14:47:09;;;;;;;2.95;2.75;;;;;;;;;;6320566;28;20043;-81
2023/08/14 14:50:12;;;;;;;5.22;2.72;;;;;;;;;;6318682;28;20044;-79
2023/08/14 14:53:14;;;;;;;3.30;3.00;;;;;;;;;;6318319;28;20040;-79
2023/08/14 14:56:15;;;;;;;3.10;2.60;;;;;;;;;;6312987;28;20056;-80
2023/08/14 14:59:17;;;;;;;3.53;2.42;;;;;;;;;;6322178;28;20086;-79
2023/08/14 15:02:18;;;;;;;5.68;3.65;;;;;;;;;;6319627;28;20522;-79
2023/08/14 15:05:21;;;;;;;3.15;2.85;;;;;;;;;;6318557;28;20267;-81
2023/08/14 15:08:22;;;;;;;2.75;2.55;;;;;;;;;;6321342;28;20053;-78
2023/08/14 15:11:24;;;;;;;4.03;2.67;;;;;;;;;;6315156;28;20343;-78
2023/08/14 15:14:25;;;;;;;3.63;2.67;;;;;;;;;;6316152;28;20048;-80
2023/08/14 15:17:27;;;;;;;5.70;3.00;;;;;;;;;;6316885;28;20056;-80
2023/08/14 15:20:30;;;;;;;3.08;2.55;;;;;;;;;;6316202;28;20044;-80
2023/08/14 15:23:31;;;;;;;3.42;2.40;;;;;;;;;;6316642;28;20052;-81
2023/08/14 15:26:33;;;;;;;3.58;2.95;;;;;;;;;;6321773;28;20282;-81
2023/08/14 15:29:34;;;;;;;2.78;2.58;;;;;;;;;;6319940;28;20063;-79
2023/08/14 15:32:36;;;;;;;3.92;2.90;;;;;;;;;;6319996;28;20106;-81
2023/08/14 15:35:39;;;;;;;3.30;2.80;;;;;;;;;;6319710;28;20286;-79
2023/08/14 15:38:41;;;;;;;3.40;2.80;;;;;;;;;;6319919;28;20058;-79
2023/08/14 15:41:42;;;;;;;;;;;;;;;;;;6319139;28;20056;-79
2023/08/14 15:44:43;;;;;;;4.72;2.88;;;;;;;;;;6319331;28;19939;-79
2023/08/14 15:47:46;;;;;;;3.40;2.55;;;;;;;;;;6316121;28;20079;-78
2023/08/14 15:50:51;;;;;;;4.28;3.00;;;;;;;;;;6322269;28;20243;-80
2023/08/14 15:53:53;;;;;;;4.57;2.65;;;;;;;;;;6315941;28;20112;-80
2023/08/14 15:56:54;;;;;;;4.70;2.95;;;;;;;;;;6321567;28;20064;-82
2023/08/14 15:59:55;;;;;;;4.13;2.85;;;;;;;;;;6320069;28;20044;-81
2023/08/14 16:02:57;;;;;;;4.68;2.90;;;;;;;;;;6320544;28;20052;-81
2023/08/14 16:06:00;;;;;;;3.72;2.83;;;;;;;;;;6319315;28;20048;-80
2023/08/14 16:09:02;;;;;;;3.42;2.65;;;;;;;;;;6319355;28;20075;-81
2023/08/14 16:12:03;;;;;;;4.50;2.90;;;;;;;;;;6314564;28;20066;-82
2023/08/14 16:15:06;;;;;;;4.93;3.33;;;;;;;;;;6320544;28;20052;-81
2023/08/14 16:18:07;;;;;;;4.13;3.10;;;;;;;;;;6322133;28;20056;-80
2023/08/14 16:21:10;;;;;;;3.70;2.83;;;;;;;;;;6319998;28;20333;-80
2023/08/14 16:24:11;;;;;;;4.82;2.90;;;;;;;;;;6318295;28;20451;-79
2023/08/14 16:27:13;;;;;;;2.87;2.60;;;;;;;;;;6318312;28;20555;-80
2023/08/14 16:30:14;;;;;;;3.58;3.00;;;;;;;;;;6313638;28;20130;-78
2023/08/14 16:33:16;;;;;;;4.33;3.00;;;;;;;;;;6315464;28;20268;-79
2023/08/14 16:36:19;;;;;;;4.90;3.23;;;;;;;;;;6311927;28;20444;-79
2023/08/14 16:39:20;;;;;;;3.88;3.40;;;;;;;;;;6319974;28;20059;-79
2023/08/14 16:42:22;;;;;;;5.35;3.70;;;;;;;;;;6323235;28;20082;-79
2023/08/14 16:45:23;;;;;;;4.73;3.20;;;;;;;;;;6319810;28;20241;-80
2023/08/14 16:48:25;;;;;;;7.60;3.23;;;;;;;;;;6317261;28;20339;-80
2023/08/14 16:51:27;;;;;;;4.23;3.27;;;;;;;;;;6317669;28;20475;-80
2023/08/14 16:54:29;;;;;;;6.75;3.72;;;;;;;;;;6320541;28;20052;-81
2023/08/14 16:57:30;;;;;;;10.03;3.73;;;;;;;;;;6311232;28;20052;-79
2023/08/14 17:00:32;;;;;;;5.53;3.60;;;;;;;;;;6321550;28;20119;-81
2023/08/14 17:03:33;;;;;;;6.47;3.77;;;;;;;;;;6317001;28;20054;-80
2023/08/14 17:06:36;;;;;;;5.00;3.50;;;;;;;;;;6315854;28;20078;-81
2023/08/14 17:09:38;;;;;;;4.15;3.30;;;;;;;;;;6317849;28;20059;-81
2023/08/14 17:12:39;;;;;;;14.20;3.92;;;;;;;;;;6319523;28;20398;-80
2023/08/14 17:15:41;;;;;;;4.50;3.50;;;;;;;;;;6317404;28;20056;-81
2023/08/14 17:18:43;;;;;;;3.20;2.95;;;;;;;;;;6319205;28;20051;-81
2023/08/14 17:21:47;;;;;;;7.22;3.35;;;;;;;;;;6313560;28;20060;-80
2023/08/14 17:24:50;;;;;;;5.03;3.58;;;;;;;;;;6321724;28;20122;-81
2023/08/14 17:27:51;;;;;;;6.80;3.85;;;;;;;;;;6322078;28;20348;-80
2023/08/14 17:30:54;;;;;;;7.28;3.80;;;;;;;;;;6319083;28;20294;-81
2023/08/14 17:33:55;;;;;;;3.88;3.33;;;;;;;;;;6318105;28;20040;-80
2023/08/14 17:36:58;;;;;;;6.90;3.80;;;;;;;;;;6318214;28;20047;-80
2023/08/14 17:39:59;;;;;;;7.63;3.60;;;;;;;;;;6318097;28;20056;-80
2023/08/14 17:43:01;;;;;;;5.13;3.50;;;;;;;;;;6320266;28;20059;-80
2023/08/14 17:46:02;;;;;;;6.25;3.47;;;;;;;;;;6314060;28;20053;-78
2023/08/14 17:49:04;;;;;;;3.80;3.17;;;;;;;;;;6311119;28;20349;-79
2023/08/14 17:52:07;;;;;;;9.83;3.60;;;;;;;;;;6312492;28;20083;-80
2023/08/14 17:55:08;;;;;;;4.13;3.25;;;;;;;;;;6315147;28;20097;-80
2023/08/14 17:58:10;;;;;;;7.75;3.28;;;;;;;;;;6314110;28;20236;-81
2023/08/14 18:01:11;;;;;;;7.78;3.63;;;;;;;;;;6311798;28;20056;-81
2023/08/14 18:04:13;;;;;;;7.53;3.67;;;;;;;;;;6312924;28;20062;-80
2023/08/14 18:07:16;;;;;;;7.30;3.22;;;;;;;;;;6312846;28;20059;-79
2023/08/14 18:10:18;;;;;;;7.40;3.67;;;;;;;;;;6315535;28;20055;-80
2023/08/14 18:13:20;;;;;;;8.50;3.50;;;;;;;;;;6315400;28;20052;-79